Time;durP1;ratioP1;P1;durP2;ratioP2;P2;SDS_P1;SDS_P2;PMS_P1;PMS_P2;Temp;Humidity;BMP_temperature;BMP_pressure;BME280_temperature;BME280_humidity;BME280_pressure;Samples;Min_cycle;Max_cycle;Signal;HPM_P1;HPM_P2
2023/05/30 00:00:25;;;;;;;0.20;0.20;;;;;;;15.44;43.97;99936.09;5065920;28;20040;-76
2023/05/30 00:02:54;;;;;;;0.20;0.20;;;;;;;15.44;45.87;99945.16;5045055;28;20044;-74
2023/05/30 00:05:22;;;;;;;0.25;0.25;;;;;;;15.35;47.66;99947.00;5079140;28;20154;-72
2023/05/30 00:07:48;;;;;;;0.20;0.20;;;;;;;15.24;46.68;99948.28;5086077;28;20082;-74
2023/05/30 00:10:15;;;;;;;0.17;0.17;;;;;;;15.20;45.96;99941.75;5048114;28;20112;-71
2023/05/30 00:12:41;;;;;;;0.20;0.20;;;;;;;15.20;45.78;99931.53;5063046;28;20770;-75
2023/05/30 00:15:08;;;;;;;0.13;0.13;;;;;;;15.20;45.90;99931.53;5066922;28;20048;-72
2023/05/30 00:17:35;;;;;;;0.20;0.17;;;;;;;15.27;46.44;99933.91;5064232;28;20568;-72
2023/05/30 00:20:04;;;;;;;0.10;0.10;;;;;;;15.28;45.96;99936.38;5076341;28;20105;-72
2023/05/30 00:22:31;;;;;;;0.20;0.20;;;;;;;15.35;46.29;99940.66;5066142;28;20052;-72
2023/05/30 00:24:59;;;;;;;0.10;0.10;;;;;;;15.36;45.29;99939.53;5083631;28;20619;-72
2023/05/30 00:27:26;;;;;;;0.10;0.10;;;;;;;15.36;45.34;99926.59;5082753;28;20052;-72
2023/05/30 00:29:52;;;;;;;0.20;0.20;;;;;;;15.43;45.18;99934.47;5081219;28;20536;-72
2023/05/30 00:32:19;;;;;;;0.30;0.20;;;;;;;15.44;44.67;99933.34;5078117;28;20143;-72
2023/05/30 00:34:46;;;;;;;0.22;0.22;;;;;;;15.47;44.41;99938.22;5060927;28;20160;-72
2023/05/30 00:37:13;;;;;;;0.10;0.10;;;;;;;15.48;44.78;99934.34;5082148;28;20043;-72
2023/05/30 00:39:40;;;;;;;0.10;0.10;;;;;;;15.47;45.18;99935.47;5063501;28;20313;-72
2023/05/30 00:42:06;;;;;;;0.10;0.10;;;;;;;15.50;44.24;99934.06;5077547;28;20041;-72
2023/05/30 00:44:33;;;;;;;0.20;0.20;;;;;;;15.52;44.39;99929.06;5082194;28;20048;-71
2023/05/30 00:46:59;;;;;;;0.10;0.10;;;;;;;15.55;45.22;99934.78;5081601;28;20071;-71
2023/05/30 00:49:26;;;;;;;0.27;0.27;;;;;;;15.56;45.19;99935.59;5079040;28;20048;-72
2023/05/30 00:51:53;;;;;;;0.10;0.10;;;;;;;15.53;46.36;99930.69;5061964;28;20385;-72
2023/05/30 00:54:22;;;;;;;0.20;0.20;;;;;;;15.48;45.77;99930.78;5064103;28;20079;-74
2023/05/30 00:56:49;;;;;;;0.20;0.20;;;;;;;15.43;45.48;99935.25;5064967;28;20047;-74
2023/05/30 00:59:16;;;;;;;0.20;0.20;;;;;;;15.48;45.59;99930.78;5082569;28;20048;-73
2023/05/30 01:01:45;;;;;;;0.10;0.10;;;;;;;15.50;46.03;99926.59;5066761;28;20044;-72
2023/05/30 01:04:12;;;;;;;0.20;0.20;;;;;;;15.55;46.04;99928.44;5065361;28;20408;-75
2023/05/30 01:06:38;;;;;;;0.20;0.20;;;;;;;15.54;45.67;99918.53;5047194;28;20048;-75
2023/05/30 01:09:06;;;;;;;0.20;0.20;;;;;;;15.52;45.33;99924.34;5043268;28;20438;-74
2023/05/30 01:11:38;;;;;;;;;;;;;;;15.50;45.61;99921.09;5081276;28;20055;-74
2023/05/30 01:14:11;;;;;;;0.32;0.20;;;;;;;15.51;44.90;99919.16;5084341;28;20015;-72
2023/05/30 01:16:44;;;;;;;0.20;0.20;;;;;;;15.51;45.90;99922.72;5048315;28;20427;-72
2023/05/30 01:19:46;;;;;;;0.20;0.20;;;;;;;15.54;45.49;99922.13;5045285;28;20044;-69
2023/05/30 01:22:22;;;;;;;0.10;0.10;;;;;;;15.55;45.69;99926.50;5082337;28;20052;-74
2023/05/30 01:25:05;;;;;;;0.20;0.20;;;;;;;15.58;44.86;99917.63;5080971;28;20087;-74
2023/05/30 01:27:42;;;;;;;0.13;0.13;;;;;;;15.64;45.00;99926.63;5045942;28;20113;-74
2023/05/30 01:30:12;;;;;;;0.20;0.20;;;;;;;15.64;45.26;99934.06;5062762;28;20059;-74
2023/05/30 01:32:38;;;;;;;0.43;0.20;;;;;;;15.61;44.80;99930.00;5051487;28;20044;-75
2023/05/30 01:35:04;;;;;;;0.10;0.10;;;;;;;15.60;44.70;99928.34;5081673;28;20105;-75
2023/05/30 01:37:31;;;;;;;0.20;0.20;;;;;;;15.56;45.05;99922.63;5048651;28;20055;-75
2023/05/30 01:39:57;;;;;;;0.17;0.17;;;;;;;15.52;46.00;99926.28;5060258;28;20543;-76
2023/05/30 01:42:28;;;;;;;0.20;0.20;;;;;;;15.51;46.33;99930.97;5078237;28;20438;-75
2023/05/30 01:45:06;;;;;;;0.20;0.20;;;;;;;15.51;46.08;99921.91;5028615;28;20044;-75
2023/05/30 01:47:44;;;;;;;0.20;0.20;;;;;;;15.48;45.94;99917.03;5029294;28;20137;-75
2023/05/30 01:50:16;;;;;;;0.20;0.20;;;;;;;15.49;45.88;99911.19;5061899;28;20727;-75
2023/05/30 01:52:50;;;;;;;0.20;0.20;;;;;;;15.53;45.83;99920.50;5085111;28;20056;-75
2023/05/30 01:55:19;;;;;;;0.20;0.20;;;;;;;15.62;45.59;99919.75;5068514;28;20159;-75
2023/05/30 01:57:47;;;;;;;0.20;0.20;;;;;;;15.60;46.09;99915.38;5067178;28;20573;-76
2023/05/30 02:00:15;;;;;;;0.20;0.20;;;;;;;15.68;46.86;99924.03;5046779;28;20424;-76
2023/05/30 02:02:46;;;;;;;0.20;0.20;;;;;;;15.68;47.21;99916.59;5066889;28;20230;-75
2023/05/30 02:05:12;;;;;;;0.20;0.20;;;;;;;15.68;46.90;99919.38;5066439;28;20128;-75
2023/05/30 02:07:38;;;;;;;0.13;0.13;;;;;;;15.60;47.04;99907.13;5048232;28;20544;-74
2023/05/30 02:10:06;;;;;;;0.13;0.13;;;;;;;15.57;47.33;99910.50;5063543;28;20533;-72
2023/05/30 02:12:34;;;;;;;0.30;0.30;;;;;;;15.51;47.05;99914.44;5054773;28;20048;-72
2023/05/30 02:15:03;;;;;;;0.30;0.30;;;;;;;15.47;46.86;99913.44;5050853;28;20107;-72
2023/05/30 02:17:33;;;;;;;0.20;0.20;;;;;;;15.39;47.25;99923.22;5050331;28;20063;-74
2023/05/30 02:20:01;;;;;;;0.20;0.20;;;;;;;15.38;46.69;99920.78;5066839;28;20052;-75
2023/05/30 02:22:35;;;;;;;0.30;0.30;;;;;;;15.40;48.05;99918.53;5068771;28;20052;-75
2023/05/30 02:25:01;;;;;;;0.20;0.20;;;;;;;15.37;47.33;99922.72;5055408;28;20055;-75
2023/05/30 02:27:30;;;;;;;0.20;0.20;;;;;;;15.35;47.63;99924.97;5050094;28;20059;-74
2023/05/30 02:29:56;;;;;;;0.30;0.30;;;;;;;15.32;46.90;99931.06;5067914;28;20495;-75
2023/05/30 02:32:23;;;;;;;0.20;0.20;;;;;;;15.32;47.11;99925.56;5045382;28;20051;-76
2023/05/30 02:34:49;;;;;;;0.20;0.20;;;;;;;15.36;47.15;99925.75;5066305;28;20094;-75
2023/05/30 02:37:17;;;;;;;0.28;0.28;;;;;;;15.37;47.51;99922.72;5066196;28;20481;-75
2023/05/30 02:39:43;;;;;;;0.20;0.20;;;;;;;15.45;49.14;99919.25;5083188;28;20051;-73
2023/05/30 02:42:09;;;;;;;0.20;0.20;;;;;;;15.50;48.35;99929.34;5051446;28;20132;-73
2023/05/30 02:44:35;;;;;;;0.20;0.20;;;;;;;15.59;48.13;99923.94;5066571;28;20507;-72
2023/05/30 02:47:03;;;;;;;0.30;0.30;;;;;;;15.68;48.08;99929.56;5061567;28;20051;-71
2023/05/30 02:49:30;;;;;;;0.20;0.20;;;;;;;15.74;47.88;99931.09;5064237;28;20483;-72
2023/05/30 02:51:58;;;;;;;0.30;0.30;;;;;;;15.72;47.90;99922.34;5049480;28;20542;-72
2023/05/30 02:54:31;;;;;;;0.20;0.20;;;;;;;15.76;47.03;99922.50;5066732;28;20422;-72
2023/05/30 02:57:21;;;;;;;0.20;0.20;;;;;;;15.83;46.78;99929.25;5084174;28;20048;-73
2023/05/30 02:59:58;;;;;;;0.20;0.20;;;;;;;15.82;46.35;99924.06;5042483;28;20115;-72
2023/05/30 03:02:24;;;;;;;0.20;0.20;;;;;;;15.78;46.29;99925.81;5082708;28;20047;-73
2023/05/30 03:04:51;;;;;;;0.20;0.20;;;;;;;15.77;46.46;99921.41;5064321;28;20051;-72
2023/05/30 03:07:19;;;;;;;0.20;0.20;;;;;;;15.74;46.67;99923.63;5066023;28;20056;-72
2023/05/30 03:09:48;;;;;;;0.22;0.22;;;;;;;15.73;46.34;99926.72;5027845;28;20486;-73
2023/05/30 03:12:15;;;;;;;0.20;0.20;;;;;;;15.77;46.08;99921.41;5057999;28;20059;-73
2023/05/30 03:14:42;;;;;;;0.20;0.20;;;;;;;15.90;46.40;99922.56;5087281;28;20044;-73
2023/05/30 03:17:08;;;;;;;0.20;0.20;;;;;;;15.94;46.19;99921.63;5089019;28;20047;-75
2023/05/30 03:19:34;;;;;;;0.20;0.20;;;;;;;15.96;46.05;99922.13;5050045;28;20462;-75
2023/05/30 03:22:04;;;;;;;0.30;0.30;;;;;;;16.10;46.03;99918.56;5048729;28;20048;-74
2023/05/30 03:24:31;;;;;;;0.30;0.30;;;;;;;16.28;45.80;99919.50;5065030;28;20648;-75
2023/05/30 03:26:59;;;;;;;0.30;0.30;;;;;;;16.42;45.66;99919.50;5050603;28;20048;-75
2023/05/30 03:29:27;;;;;;;0.30;0.30;;;;;;;16.48;45.06;99912.72;5064182;28;20662;-75
2023/05/30 03:31:54;;;;;;;0.30;0.30;;;;;;;16.53;45.09;99929.16;5064339;28;20048;-75
2023/05/30 03:34:22;;;;;;;0.20;0.20;;;;;;;16.51;45.49;99917.59;5081434;28;20446;-75
2023/05/30 03:36:52;;;;;;;0.20;0.20;;;;;;;16.54;46.17;99929.97;5038404;28;20367;-76
2023/05/30 03:39:19;;;;;;;0.30;0.30;;;;;;;16.45;45.55;99936.22;5048848;28;20056;-76
2023/05/30 03:41:46;;;;;;;0.20;0.20;;;;;;;16.39;46.21;99931.13;5082805;28;20460;-73
2023/05/30 03:44:14;;;;;;;0.28;0.28;;;;;;;16.32;46.38;99925.22;5082979;28;20083;-71
2023/05/30 03:46:40;;;;;;;0.30;0.30;;;;;;;16.39;46.55;99931.97;5062449;28;20434;-72
2023/05/30 03:49:06;;;;;;;0.30;0.30;;;;;;;16.47;46.68;99937.84;5065317;28;20071;-74
2023/05/30 03:51:33;;;;;;;0.30;0.30;;;;;;;16.53;46.85;99940.19;5081718;28;20127;-73
2023/05/30 03:54:00;;;;;;;0.20;0.20;;;;;;;16.56;46.78;99931.31;5064142;28;20526;-72
2023/05/30 03:56:26;;;;;;;0.20;0.20;;;;;;;16.55;47.21;99929.66;5083460;28;20526;-72
2023/05/30 03:58:52;;;;;;;0.28;0.28;;;;;;;16.58;47.30;99930.97;5065617;28;20066;-73
2023/05/30 04:01:20;;;;;;;0.30;0.30;;;;;;;16.58;47.18;99942.84;5047635;28;20085;-73
2023/05/30 04:03:46;;;;;;;0.20;0.20;;;;;;;16.66;47.01;99941.28;5063576;28;20133;-73
2023/05/30 04:06:13;;;;;;;0.22;0.22;;;;;;;16.69;47.04;99929.59;5081551;28;20055;-73
2023/05/30 04:08:40;;;;;;;0.30;0.30;;;;;;;16.73;46.47;99936.13;5063163;28;20136;-72
2023/05/30 04:11:07;;;;;;;0.30;0.30;;;;;;;16.76;46.24;99931.94;5064712;28;20310;-72
2023/05/30 04:13:34;;;;;;;0.30;0.30;;;;;;;16.80;46.12;99941.22;5046139;28;20245;-73
2023/05/30 04:16:01;;;;;;;0.30;0.30;;;;;;;16.95;46.32;99936.44;5042730;28;20056;-73
2023/05/30 04:18:29;;;;;;;0.30;0.30;;;;;;;17.08;45.59;99932.00;5062957;28;20050;-73
2023/05/30 04:20:55;;;;;;;0.20;0.20;;;;;;;17.22;45.55;99937.47;5055956;28;20581;-72
2023/05/30 04:23:22;;;;;;;0.30;0.30;;;;;;;17.37;45.08;99939.00;5047907;28;20036;-73
2023/05/30 04:25:49;;;;;;;0.20;0.20;;;;;;;17.47;44.74;99937.91;5030415;28;20473;-76
2023/05/30 04:28:17;;;;;;;0.30;0.30;;;;;;;17.60;43.99;99936.97;5052669;28;20421;-75
2023/05/30 04:30:48;;;;;;;0.20;0.20;;;;;;;17.58;44.30;99929.03;5063779;28;20514;-76
2023/05/30 04:33:16;;;;;;;0.30;0.30;;;;;;;17.72;43.68;99919.81;5060471;28;20123;-76
2023/05/30 04:35:44;;;;;;;0.30;0.30;;;;;;;17.84;43.57;99925.53;5060581;28;20643;-75
2023/05/30 04:38:16;;;;;;;0.30;0.30;;;;;;;17.98;43.39;99919.88;5024499;28;20522;-76
2023/05/30 04:40:42;;;;;;;0.30;0.30;;;;;;;18.17;42.86;99924.34;5058456;28;20124;-76
2023/05/30 04:43:09;;;;;;;0.30;0.30;;;;;;;18.38;42.69;99920.94;5051344;28;20170;-76
2023/05/30 04:45:36;;;;;;;0.38;0.38;;;;;;;18.58;42.24;99918.66;5044018;28;20146;-76
2023/05/30 04:48:03;;;;;;;0.32;0.32;;;;;;;18.68;41.01;99918.31;5083171;28;20724;-75
2023/05/30 04:50:31;;;;;;;0.30;0.30;;;;;;;18.73;40.37;99917.34;5049179;28;20055;-73
2023/05/30 04:52:58;;;;;;;;;;;;;;;18.84;39.76;99916.69;5051181;28;20462;-73
2023/05/30 04:55:25;;;;;;;0.30;0.30;;;;;;;18.98;39.69;99922.03;5058198;28;19930;-73
2023/05/30 04:57:51;;;;;;;0.30;0.30;;;;;;;19.07;39.54;99913.75;5080956;28;20060;-73
2023/05/30 05:00:19;;;;;;;0.40;0.40;;;;;;;19.18;39.19;99924.47;5083011;28;20051;-72
2023/05/30 05:02:46;;;;;;;0.30;0.30;;;;;;;19.18;37.79;99924.47;5059927;28;20071;-73
2023/05/30 05:05:12;;;;;;;0.30;0.30;;;;;;;19.19;38.63;99915.81;5050002;28;20052;-72
2023/05/30 05:07:38;;;;;;;0.30;0.30;;;;;;;19.31;37.79;99917.91;5080739;28;20188;-73
2023/05/30 05:10:07;;;;;;;0.30;0.30;;;;;;;19.36;37.48;99914.13;5061184;28;20094;-73
2023/05/30 05:12:33;;;;;;;0.40;0.40;;;;;;;19.44;38.32;99920.81;5060134;28;20142;-72
2023/05/30 05:15:00;;;;;;;0.37;0.37;;;;;;;19.58;37.96;99920.56;5082378;28;20050;-73
2023/05/30 05:17:26;;;;;;;0.30;0.30;;;;;;;19.58;36.71;99910.31;5060842;28;20575;-73
2023/05/30 05:19:52;;;;;;;0.40;0.40;;;;;;;19.63;36.03;99915.66;5075269;28;20049;-72
2023/05/30 05:22:19;;;;;;;0.30;0.30;;;;;;;19.61;35.77;99915.19;5065726;28;20036;-72
2023/05/30 05:24:45;;;;;;;0.30;0.30;;;;;;;19.68;34.81;99909.13;5055189;28;20036;-70
2023/05/30 05:27:13;;;;;;;0.30;0.30;;;;;;;19.74;34.61;99918.84;5078064;28;20040;-71
2023/05/30 05:29:40;;;;;;;0.30;0.30;;;;;;;19.90;34.09;99916.34;5049438;28;20520;-76
2023/05/30 05:32:08;;;;;;;0.30;0.30;;;;;;;20.02;34.03;99912.06;5051754;28;20044;-75
2023/05/30 05:34:34;;;;;;;0.30;0.30;;;;;;;20.14;34.18;99911.31;5081952;28;20383;-76
2023/05/30 05:37:00;;;;;;;0.40;0.40;;;;;;;20.24;33.45;99913.72;5061245;28;20066;-71
2023/05/30 05:39:27;;;;;;;0.30;0.30;;;;;;;20.34;32.78;99916.06;5078839;28;20044;-76
2023/05/30 05:41:53;;;;;;;0.30;0.30;;;;;;;20.47;32.45;99918.91;5081259;28;20047;-72
2023/05/30 05:44:21;;;;;;;0.40;0.40;;;;;;;20.54;31.45;99917.22;5059908;28;20093;-71
2023/05/30 05:46:47;;;;;;;0.30;0.30;;;;;;;20.67;31.21;99900.63;5052782;28;20052;-71
2023/05/30 05:49:13;;;;;;;0.30;0.30;;;;;;;20.82;30.74;99907.53;5071782;28;20089;-71
2023/05/30 05:51:39;;;;;;;0.30;0.30;;;;;;;20.86;30.12;99902.09;5050112;28;20733;-71
2023/05/30 05:54:06;;;;;;;0.30;0.30;;;;;;;20.73;29.89;99904.00;5071038;28;20052;-71
2023/05/30 05:56:32;;;;;;;0.30;0.30;;;;;;;20.77;29.38;99902.97;5020695;28;20133;-71
2023/05/30 05:58:58;;;;;;;0.30;0.30;;;;;;;20.78;29.09;99903.78;5076576;28;20052;-77
2023/05/30 06:01:26;;;;;;;0.32;0.32;;;;;;;20.88;28.80;99908.94;5085183;28;20051;-77
2023/05/30 06:03:52;;;;;;;0.30;0.30;;;;;;;20.93;28.07;99905.94;5069801;28;20075;-77
2023/05/30 06:06:19;;;;;;;0.40;0.40;;;;;;;20.99;27.95;99903.75;5065133;28;20116;-77
2023/05/30 06:08:49;;;;;;;0.30;0.30;;;;;;;21.12;27.13;99899.03;5048913;28;20048;-76
2023/05/30 06:11:15;;;;;;;0.40;0.40;;;;;;;21.23;26.89;99911.34;5090728;28;20113;-77
2023/05/30 06:13:42;;;;;;;0.40;0.40;;;;;;;21.46;26.33;99905.34;5078611;28;20059;-71
2023/05/30 06:16:08;;;;;;;0.40;0.40;;;;;;;21.66;25.39;99905.63;5096283;28;20544;-76
2023/05/30 06:18:36;;;;;;;0.40;0.40;;;;;;;21.69;25.72;99896.59;5076027;28;20074;-71
2023/05/30 06:21:04;;;;;;;0.40;0.40;;;;;;;21.91;25.39;99894.47;5033342;28;20144;-70
2023/05/30 06:23:30;;;;;;;0.40;0.40;;;;;;;22.00;25.48;99886.81;5084582;28;20050;-71
2023/05/30 06:25:56;;;;;;;0.60;0.40;;;;;;;21.77;25.24;99897.63;5072537;28;20055;-78
2023/05/30 06:28:23;;;;;;;0.30;0.30;;;;;;;21.35;25.45;99891.09;5065839;28;20048;-77
2023/05/30 06:30:49;;;;;;;0.30;0.30;;;;;;;21.07;25.53;99893.72;5064002;28;20044;-77
2023/05/30 06:33:15;;;;;;;0.30;0.30;;;;;;;20.92;26.39;99884.88;5079133;28;20040;-77
2023/05/30 06:35:43;;;;;;;0.40;0.40;;;;;;;21.01;25.83;99886.75;5079991;28;20522;-76
2023/05/30 06:38:09;;;;;;;0.30;0.30;;;;;;;21.07;26.14;99888.16;5062305;28;20121;-76
2023/05/30 06:40:35;;;;;;;0.30;0.30;;;;;;;21.22;26.34;99890.28;5086505;28;20066;-77
2023/05/30 06:43:02;;;;;;;0.30;0.30;;;;;;;21.31;26.08;99887.38;5069520;28;20129;-76
2023/05/30 06:45:30;;;;;;;0.40;0.40;;;;;;;21.37;26.01;99890.75;5069615;28;20048;-71
2023/05/30 06:47:57;;;;;;;0.40;0.40;;;;;;;21.30;25.84;99880.19;5081975;28;20506;-77
2023/05/30 06:50:23;;;;;;;0.50;0.50;;;;;;;21.64;25.70;99880.91;5046688;28;20298;-76
2023/05/30 06:52:51;;;;;;;0.40;0.40;;;;;;;22.09;25.47;99886.69;5067035;28;20113;-77
2023/05/30 06:55:17;;;;;;;0.40;0.40;;;;;;;22.26;25.43;99887.56;5082007;28;20081;-71
2023/05/30 06:57:46;;;;;;;0.40;0.40;;;;;;;22.13;25.45;99887.59;5087613;28;20056;-76
2023/05/30 07:00:14;;;;;;;0.40;0.40;;;;;;;22.04;25.37;99875.81;5068528;28;20515;-76
2023/05/30 07:02:41;;;;;;;0.40;0.40;;;;;;;21.72;25.36;99881.19;5085961;28;20076;-71
2023/05/30 07:05:07;;;;;;;0.30;0.30;;;;;;;21.46;26.14;99871.19;5085388;28;20529;-70
2023/05/30 07:07:35;;;;;;;0.40;0.40;;;;;;;21.37;26.31;99891.53;5067595;28;20076;-71
2023/05/30 07:10:03;;;;;;;0.30;0.30;;;;;;;21.01;26.20;99872.88;5049139;28;20298;-76
2023/05/30 07:12:30;;;;;;;0.40;0.40;;;;;;;20.79;26.99;99883.19;5083877;28;20487;-76
2023/05/30 07:14:56;;;;;;;0.40;0.40;;;;;;;20.76;27.21;99881.91;5065205;28;20052;-76
2023/05/30 07:17:22;;;;;;;0.40;0.40;;;;;;;21.11;26.33;99869.63;5064468;28;20486;-76
2023/05/30 07:19:49;;;;;;;0.40;0.40;;;;;;;21.39;26.29;99850.31;5069620;28;20408;-76
2023/05/30 07:22:15;;;;;;;0.30;0.30;;;;;;;21.87;26.18;99862.94;5084797;28;20040;-77
2023/05/30 07:24:41;;;;;;;0.30;0.30;;;;;;;21.58;25.89;99868.41;5084396;28;20059;-76
2023/05/30 07:27:09;;;;;;;0.30;0.30;;;;;;;20.78;26.49;99860.16;5083049;28;20498;-76
2023/05/30 07:29:35;;;;;;;0.30;0.30;;;;;;;20.59;27.47;99859.84;5082237;28;20045;-76
2023/05/30 07:32:01;;;;;;;0.30;0.30;;;;;;;20.53;27.37;99854.50;5080897;28;20511;-77
2023/05/30 07:34:28;;;;;;;0.30;0.30;;;;;;;20.49;27.89;99853.56;5084852;28;20446;-76
2023/05/30 07:36:54;;;;;;;0.30;0.30;;;;;;;20.44;27.83;99852.97;5093064;28;20511;-77
2023/05/30 07:39:21;;;;;;;0.40;0.40;;;;;;;20.27;27.90;99852.75;5093789;28;20113;-76
2023/05/30 07:41:47;;;;;;;0.87;0.40;;;;;;;20.18;28.21;99849.25;5093114;28;20507;-77
2023/05/30 07:44:15;;;;;;;0.55;0.50;;;;;;;20.24;28.11;99847.91;5072983;28;21309;-70
2023/05/30 07:46:41;;;;;;;0.40;0.40;;;;;;;20.69;27.51;99851.91;5078116;28;20143;-76
2023/05/30 07:49:08;;;;;;;0.40;0.40;;;;;;;21.32;26.92;99846.50;5063038;28;20059;-76
2023/05/30 07:51:35;;;;;;;0.63;0.40;;;;;;;21.80;25.65;99849.63;5061185;28;20050;-77
2023/05/30 07:54:01;;;;;;;0.30;0.30;;;;;;;21.95;25.72;99842.53;5083816;28;20139;-76
2023/05/30 07:56:27;;;;;;;0.30;0.30;;;;;;;21.63;25.61;99850.66;5066638;28;20044;-77
2023/05/30 07:58:53;;;;;;;0.30;0.30;;;;;;;21.25;26.57;99844.28;5081707;28;20052;-76
2023/05/30 08:01:21;;;;;;;0.40;0.40;;;;;;;20.92;26.71;99845.97;5080493;28;20422;-77
2023/05/30 08:03:47;;;;;;;0.40;0.40;;;;;;;21.10;26.40;99852.16;5083917;28;20056;-77
2023/05/30 08:06:13;;;;;;;0.50;0.50;;;;;;;21.61;25.71;99837.09;5085683;28;20058;-76
2023/05/30 08:08:40;;;;;;;0.43;0.43;;;;;;;22.37;25.16;99828.22;5048547;28;20067;-77
2023/05/30 08:11:06;;;;;;;0.40;0.40;;;;;;;22.94;24.42;99835.75;5081063;28;20051;-77
2023/05/30 08:13:33;;;;;;;0.45;0.45;;;;;;;23.33;23.58;99827.59;5050170;28;20048;-77
2023/05/30 08:15:59;;;;;;;0.50;0.50;;;;;;;23.45;23.42;99820.31;5066753;28;20558;-71
2023/05/30 08:18:31;;;;;;;0.50;0.50;;;;;;;23.86;23.47;99825.63;5084704;28;20177;-70
2023/05/30 08:20:57;;;;;;;0.52;0.52;;;;;;;24.25;22.66;99828.47;5044687;28;20044;-71
2023/05/30 08:23:23;;;;;;;0.50;0.50;;;;;;;24.73;22.02;99825.41;5036346;28;20040;-70
2023/05/30 08:25:50;;;;;;;0.50;0.50;;;;;;;24.78;22.04;99824.34;5056132;28;20148;-70
2023/05/30 08:28:16;;;;;;;0.50;0.50;;;;;;;25.06;21.67;99828.81;5055625;28;20306;-70
2023/05/30 08:30:48;;;;;;;0.50;0.50;;;;;;;25.46;21.49;99818.28;5041706;28;20130;-71
2023/05/30 08:33:15;;;;;;;0.60;0.60;;;;;;;26.15;20.44;99822.06;5056664;28;20063;-71
2023/05/30 08:35:43;;;;;;;0.60;0.60;;;;;;;26.82;19.97;99816.78;5061272;28;20039;-71
2023/05/30 08:38:10;;;;;;;0.60;0.60;;;;;;;27.32;19.52;99814.47;5076186;28;20054;-71
2023/05/30 08:40:41;;;;;;;0.50;0.50;;;;;;;27.53;18.99;99800.97;5042602;28;20514;-71
2023/05/30 08:43:08;;;;;;;0.40;0.40;;;;;;;26.82;19.60;99811.19;5071734;28;20051;-71
2023/05/30 08:45:34;;;;;;;0.40;0.40;;;;;;;25.79;20.73;99811.19;5082268;28;20473;-71
2023/05/30 08:48:01;;;;;;;0.40;0.40;;;;;;;25.02;21.49;99814.78;5054336;28;20454;-72
2023/05/30 08:50:29;;;;;;;0.60;0.60;;;;;;;25.51;21.29;99798.38;5052972;28;20056;-71
2023/05/30 08:53:06;;;;;;;0.60;0.60;;;;;;;26.99;20.10;99793.75;5056920;28;20400;-70
2023/05/30 08:55:38;;;;;;;0.40;0.40;;;;;;;28.19;18.64;99805.78;5054966;28;20103;-77
2023/05/30 08:58:09;;;;;;;0.70;0.70;;;;;;;26.82;19.78;99797.97;5052678;28;20048;-71
2023/05/30 09:00:37;;;;;;;0.40;0.40;;;;;;;25.75;21.14;99796.31;5036000;28;20415;-77
2023/05/30 09:03:05;;;;;;;0.40;0.40;;;;;;;24.51;22.10;99801.84;5053431;28;20049;-70
2023/05/30 09:05:33;;;;;;;0.40;0.40;;;;;;;23.43;23.28;99792.78;5054333;28;20066;-70
2023/05/30 09:08:01;;;;;;;0.40;0.40;;;;;;;22.83;24.05;99795.66;5033401;28;20037;-76
2023/05/30 09:10:29;;;;;;;0.30;0.30;;;;;;;22.23;25.20;99786.88;5056852;28;20566;-71
2023/05/30 09:12:58;;;;;;;;;;;;;;;22.16;24.93;99786.66;5057876;28;20048;-71
2023/05/30 09:15:25;;;;;;;0.35;0.35;;;;;;;22.17;25.42;99782.75;5060344;28;19963;-77
2023/05/30 09:17:51;;;;;;;0.40;0.40;;;;;;;22.23;25.43;99786.06;5053416;28;20103;-77
2023/05/30 09:20:18;;;;;;;0.40;0.40;;;;;;;22.32;24.78;99780.34;5064641;28;20481;-71
2023/05/30 09:22:46;;;;;;;0.40;0.40;;;;;;;22.55;24.81;99779.81;5061923;28;20048;-71
2023/05/30 09:25:15;;;;;;;0.70;0.70;;;;;;;23.48;24.03;99775.75;5056202;28;20052;-71
2023/05/30 09:27:48;;;;;;;0.70;0.70;;;;;;;25.66;21.51;99767.81;5061048;28;20424;-71
2023/05/30 09:30:16;;;;;;;0.80;0.80;;;;;;;27.60;19.64;99765.34;5029880;28;20475;-76
2023/05/30 09:32:43;;;;;;;0.80;0.80;;;;;;;28.98;17.77;99759.34;5056504;28;20057;-71
2023/05/30 09:35:10;;;;;;;0.60;0.60;;;;;;;29.26;17.09;99764.16;5062340;28;20048;-71
2023/05/30 09:37:40;;;;;;;0.80;0.80;;;;;;;29.15;17.68;99763.34;5052570;28;20122;-76
2023/05/30 09:40:11;;;;;;;0.80;0.80;;;;;;;29.48;17.30;99758.50;5058550;28;20055;-77
2023/05/30 09:42:43;;;;;;;0.90;0.90;;;;;;;30.10;16.60;99763.97;5039361;28;20040;-76
2023/05/30 09:45:11;;;;;;;0.90;0.90;;;;;;;31.14;15.75;99747.53;5050341;28;20392;-76
2023/05/30 09:47:40;;;;;;;0.90;0.90;;;;;;;32.11;15.41;99742.81;5057894;28;20049;-71
2023/05/30 09:50:09;;;;;;;1.00;1.00;;;;;;;32.26;15.01;99736.97;5061153;28;20118;-71
2023/05/30 09:52:36;;;;;;;0.68;0.68;;;;;;;31.74;15.28;99733.19;5056013;28;20411;-76
2023/05/30 09:55:06;;;;;;;1.00;1.00;;;;;;;31.15;16.43;99735.00;5044620;28;20523;-76
2023/05/30 09:57:36;;;;;;;0.70;0.70;;;;;;;30.90;15.82;99740.88;5060661;28;20044;-76
2023/05/30 10:00:15;;;;;;;0.60;0.60;;;;;;;29.39;16.80;99741.22;5058538;28;20053;-76
2023/05/30 10:02:43;;;;;;;1.10;1.10;;;;;;;28.68;17.72;99738.81;5060935;28;20132;-71
2023/05/30 10:05:20;;;;;;;1.10;1.10;;;;;;;29.71;16.75;99729.06;5056738;28;20486;-76
2023/05/30 10:07:48;;;;;;;1.02;1.02;;;;;;;31.12;15.73;99731.00;5053783;28;20044;-76
2023/05/30 10:10:16;;;;;;;1.00;1.00;;;;;;;31.15;15.32;99725.75;5061121;28;20354;-77
2023/05/30 10:12:42;;;;;;;1.10;1.10;;;;;;;31.05;15.47;99727.44;5056808;28;20601;-77
2023/05/30 10:15:09;;;;;;;1.30;1.20;;;;;;;31.85;15.09;99727.44;5064121;28;20051;-77
2023/05/30 10:17:50;;;;;;;0.60;0.60;;;;;;;32.09;14.76;99722.66;5059742;28;20045;-77
2023/05/30 10:20:19;;;;;;;0.60;0.60;;;;;;;31.45;14.97;99725.06;5057827;28;20446;-71
2023/05/30 10:22:47;;;;;;;0.60;0.60;;;;;;;29.46;16.60;99727.13;5046300;28;20044;-71
2023/05/30 10:25:17;;;;;;;0.60;0.60;;;;;;;27.99;17.96;99723.81;5057347;28;20044;-76
2023/05/30 10:27:52;;;;;;;0.50;0.50;;;;;;;27.46;18.59;99717.50;5056780;28;20053;-76
2023/05/30 10:30:25;;;;;;;0.50;0.50;;;;;;;27.09;19.03;99722.13;5055788;28;20424;-77
2023/05/30 10:33:04;;;;;;;0.60;0.60;;;;;;;27.03;19.10;99710.44;5057201;28;20059;-71
2023/05/30 10:35:32;;;;;;;0.60;0.60;;;;;;;26.79;19.61;99709.03;5052305;28;20050;-70
2023/05/30 10:38:00;;;;;;;0.50;0.50;;;;;;;26.47;19.85;99703.94;5053953;28;20045;-71
2023/05/30 10:40:35;;;;;;;0.60;0.60;;;;;;;26.61;19.86;99703.28;5055360;28;20048;-70
2023/05/30 10:43:19;;;;;;;0.80;0.80;;;;;;;27.15;18.93;99695.28;5026827;28;20041;-71
2023/05/30 10:46:00;;;;;;;1.25;1.20;;;;;;;29.16;17.60;99691.78;5058613;28;20052;-71
2023/05/30 10:48:43;;;;;;;1.20;1.20;;;;;;;31.77;15.62;99680.69;5064469;28;20053;-71
2023/05/30 10:51:16;;;;;;;1.30;1.20;;;;;;;33.62;14.60;99686.97;5062101;28;20048;-71
2023/05/30 10:53:44;;;;;;;1.40;1.30;;;;;;;34.96;13.18;99676.56;5075773;28;20469;-75
2023/05/30 10:56:37;;;;;;;1.30;1.20;;;;;;;36.03;12.27;99674.78;5082179;28;20035;-76
2023/05/30 10:59:11;;;;;;;1.10;1.10;;;;;;;36.18;12.54;99674.31;5077364;28;20069;-71
2023/05/30 11:01:38;;;;;;;1.30;1.20;;;;;;;35.72;12.31;99680.19;5084210;28;20051;-77
2023/05/30 11:04:07;;;;;;;1.40;1.30;;;;;;;35.51;12.22;99673.84;5086268;28;20040;-77
2023/05/30 11:06:35;;;;;;;1.40;1.30;;;;;;;35.11;12.42;99671.34;5079575;28;20044;-76
2023/05/30 11:09:07;;;;;;;1.40;1.30;;;;;;;34.70;12.87;99665.88;5083128;28;20071;-77
2023/05/30 11:11:36;;;;;;;1.40;1.30;;;;;;;34.86;12.75;99664.25;5063406;28;20074;-76
2023/05/30 11:14:04;;;;;;;1.38;1.27;;;;;;;34.65;12.33;99658.69;5059120;28;20201;-76
2023/05/30 11:16:31;;;;;;;1.40;1.30;;;;;;;34.16;12.92;99665.16;5031730;28;20531;-76
2023/05/30 11:19:08;;;;;;;;;;;;;;;34.78;12.65;99653.13;5058909;28;20048;-76
2023/05/30 11:21:56;;;;;;;1.40;1.30;;;;;;;34.79;12.88;99651.06;5060094;28;19934;-77
2023/05/30 11:24:22;;;;;;;1.30;1.20;;;;;;;34.54;12.67;99661.03;5046505;28;20044;-78
2023/05/30 11:26:55;;;;;;;;;;;;;;;34.18;13.04;99647.69;5079167;28;20068;-77
2023/05/30 11:29:33;;;;;;;1.10;1.10;;;;;;;33.80;12.92;99651.78;5078341;28;20385;-77
2023/05/30 11:32:00;;;;;;;1.30;1.20;;;;;;;33.66;13.13;99642.38;5061415;28;20589;-76
2023/05/30 11:34:27;;;;;;;1.40;1.30;;;;;;;34.03;13.65;99655.75;5061624;28;20051;-77
2023/05/30 11:36:58;;;;;;;1.50;1.40;;;;;;;35.32;12.68;99645.16;5079838;28;20135;-77
2023/05/30 11:39:24;;;;;;;1.20;1.10;;;;;;;35.49;12.83;99640.22;5080458;28;20274;-75